TRA1J LPFR-EHAM
Flight info
| Callsign | TRA1J |
|---|---|
| Flight time | N/A |
| Altitude | 34000 |
| Route | ELVAR DCT BARDI/N0449F360 DCT ZMR DCT NUBLO DCT RONSI DCT DELOG DCT DIDIG DCT USODA DCT ERCUT DCT DITAL DCT ELCOB DCT PODEM DCT BAZOS DCT LUMIL DCT BELOB UY873 DENUT |
| Aircraft | A21N/M-SDE2E3FGHIJ1RWXY/LB1 |
Departure
| Time | 2026-04-27 14:22 |
|---|---|
| Airport | Faro - Gago Coutinho International Airport (LPFR) |
Arrival
| Time | N/A |
|---|---|
| Airport | Amsterdam Airport Schiphol (EHAM) |
| Time | Latitude | Longitude | Altitude | Speed | Heading |
|---|---|---|---|---|---|
| 2026-04-27 13:59 | 37.01905 | -7.96770 | 25 ft | 0 kts | 9° |
| 2026-04-27 14:09 | 37.01904 | -7.96770 | 25 ft | 1 kts | 9° |
| 2026-04-27 14:09 | 37.01881 | -7.96775 | 28 ft | 4 kts | 9° |
| 2026-04-27 14:09 | 37.01856 | -7.96781 | 29 ft | 4 kts | 5° |
| 2026-04-27 14:10 | 37.01832 | -7.96776 | 31 ft | 4 kts | 322° |
| 2026-04-27 14:10 | 37.01817 | -7.96751 | 30 ft | 4 kts | 284° |
| 2026-04-27 14:10 | 37.01816 | -7.96742 | 31 ft | 1 kts | 281° |
| 2026-04-27 14:10 | 37.01815 | -7.96740 | 30 ft | 0 kts | 281° |
| 2026-04-27 14:14 | 37.01816 | -7.96742 | 31 ft | 1 kts | 281° |
| 2026-04-27 14:14 | 37.01820 | -7.96769 | 30 ft | 5 kts | 281° |
| 2026-04-27 14:15 | 37.01829 | -7.96826 | 19 ft | 8 kts | 281° |
| 2026-04-27 14:15 | 37.01831 | -7.96843 | 29 ft | 0 kts | 278° |
| 2026-04-27 14:15 | 37.01832 | -7.96852 | 28 ft | 2 kts | 276° |
| 2026-04-27 14:16 | 37.01832 | -7.96853 | 27 ft | 1 kts | 273° |
| 2026-04-27 14:16 | 37.01820 | -7.96870 | 26 ft | 4 kts | 212° |
| 2026-04-27 14:16 | 37.01777 | -7.96886 | 26 ft | 8 kts | 193° |
| 2026-04-27 14:17 | 37.01711 | -7.96904 | 28 ft | 11 kts | 194° |
| 2026-04-27 14:17 | 37.01685 | -7.96999 | 26 ft | 15 kts | 282° |
| 2026-04-27 14:17 | 37.01706 | -7.97135 | 26 ft | 17 kts | 279° |
| 2026-04-27 14:17 | 37.01728 | -7.97294 | 28 ft | 19 kts | 280° |
| 2026-04-27 14:18 | 37.01746 | -7.97417 | 28 ft | 10 kts | 280° |
| 2026-04-27 14:18 | 37.01761 | -7.97520 | 28 ft | 14 kts | 280° |
| 2026-04-27 14:18 | 37.01779 | -7.97649 | 26 ft | 17 kts | 279° |
| 2026-04-27 14:18 | 37.01800 | -7.97803 | 26 ft | 19 kts | 281° |
| 2026-04-27 14:19 | 37.01826 | -7.97980 | 26 ft | 22 kts | 279° |
| 2026-04-27 14:19 | 37.01851 | -7.98164 | 26 ft | 18 kts | 280° |
| 2026-04-27 14:19 | 37.01873 | -7.98317 | 30 ft | 17 kts | 280° |
| 2026-04-27 14:19 | 37.01894 | -7.98472 | 26 ft | 19 kts | 276° |
| 2026-04-27 14:20 | 37.01833 | -7.98568 | 30 ft | 11 kts | 189° |
| 2026-04-27 14:20 | 37.01742 | -7.98580 | 28 ft | 15 kts | 151° |
| 2026-04-27 14:20 | 37.01718 | -7.98502 | 29 ft | 0 kts | 102° |
| 2026-04-27 14:21 | 37.01718 | -7.98501 | 29 ft | 1 kts | 102° |
| 2026-04-27 14:21 | 37.01714 | -7.98476 | 29 ft | 5 kts | 101° |
| 2026-04-27 14:22 | 37.01676 | -7.98211 | 28 ft | 79 kts | 101° |
| 2026-04-27 14:22 | 37.01526 | -7.97151 | 66 ft | 159 kts | 102° |
| 2026-04-27 14:22 | 37.01328 | -7.95798 | 1038 ft | 156 kts | 102° |
| 2026-04-27 14:22 | 37.01110 | -7.94397 | 1854 ft | 174 kts | 101° |
| 2026-04-27 14:23 | 37.00880 | -7.92863 | 2638 ft | 184 kts | 99° |
| 2026-04-27 14:23 | 37.00644 | -7.91198 | 3398 ft | 205 kts | 99° |
| 2026-04-27 14:23 | 37.00369 | -7.89403 | 4330 ft | 214 kts | 99° |
| 2026-04-27 14:23 | 37.00065 | -7.87543 | 5246 ft | 222 kts | 99° |
| 2026-04-27 14:24 | 36.99828 | -7.85580 | 5975 ft | 240 kts | 95° |
| 2026-04-27 14:24 | 36.99630 | -7.83374 | 6696 ft | 264 kts | 94° |
| 2026-04-27 14:24 | 36.99840 | -7.81103 | 7782 ft | 273 kts | 72° |
| 2026-04-27 14:24 | 37.00806 | -7.79018 | 8952 ft | 283 kts | 53° |
| 2026-04-27 14:25 | 37.02073 | -7.77078 | 10064 ft | 294 kts | 51° |
| 2026-04-27 14:25 | 37.03442 | -7.75011 | 10672 ft | 324 kts | 52° |
| 2026-04-27 14:25 | 37.04951 | -7.72753 | 11199 ft | 352 kts | 48° |
| 2026-04-27 14:25 | 37.06900 | -7.70748 | 11804 ft | 375 kts | 32° |
| 2026-04-27 14:26 | 37.09354 | -7.69564 | 12772 ft | 382 kts | 12° |
| 2026-04-27 14:26 | 37.12013 | -7.69218 | 13832 ft | 388 kts | 3° |
| 2026-04-27 14:26 | 37.14731 | -7.69051 | 14751 ft | 393 kts | 2° |
| 2026-04-27 14:26 | 37.17478 | -7.68876 | 15702 ft | 397 kts | 3° |
| 2026-04-27 14:27 | 37.20254 | -7.68676 | 16587 ft | 403 kts | 4° |
| 2026-04-27 14:27 | 37.23068 | -7.68457 | 17458 ft | 408 kts | 4° |
| 2026-04-27 14:27 | 37.25920 | -7.68230 | 18332 ft | 413 kts | 4° |
| 2026-04-27 14:27 | 37.28800 | -7.67996 | 19066 ft | 418 kts | 4° |
| 2026-04-27 14:28 | 37.31716 | -7.67761 | 19807 ft | 422 kts | 4° |
| 2026-04-27 14:28 | 37.34668 | -7.67522 | 20543 ft | 427 kts | 4° |
| 2026-04-27 14:28 | 37.37643 | -7.67281 | 21312 ft | 431 kts | 3° |
| 2026-04-27 14:28 | 37.40646 | -7.67038 | 22085 ft | 435 kts | 3° |
| 2026-04-27 14:29 | 37.43687 | -7.66792 | 22844 ft | 440 kts | 3° |
| 2026-04-27 14:29 | 37.46751 | -7.66544 | 23576 ft | 444 kts | 3° |
| 2026-04-27 14:29 | 37.49853 | -7.66292 | 24160 ft | 449 kts | 3° |
| 2026-04-27 14:29 | 37.52995 | -7.66036 | 24727 ft | 454 kts | 3° |
| 2026-04-27 14:30 | 37.56152 | -7.65780 | 25299 ft | 457 kts | 3° |
| 2026-04-27 14:30 | 37.59340 | -7.65520 | 25851 ft | 461 kts | 3° |
| 2026-04-27 14:30 | 37.62551 | -7.65258 | 26386 ft | 464 kts | 3° |
| 2026-04-27 14:30 | 37.65787 | -7.64994 | 26923 ft | 468 kts | 3° |
| 2026-04-27 14:31 | 37.69043 | -7.64729 | 27441 ft | 471 kts | 3° |
| 2026-04-27 14:31 | 37.72319 | -7.64459 | 27993 ft | 472 kts | 3° |
| 2026-04-27 14:31 | 37.75599 | -7.64190 | 28633 ft | 471 kts | 3° |
| 2026-04-27 14:31 | 37.78866 | -7.63923 | 29318 ft | 470 kts | 3° |
| 2026-04-27 14:32 | 37.82124 | -7.63657 | 30004 ft | 468 kts | 3° |
| 2026-04-27 14:32 | 37.85370 | -7.63389 | 30580 ft | 467 kts | 3° |
| 2026-04-27 14:32 | 37.88610 | -7.63123 | 31142 ft | 466 kts | 3° |
| 2026-04-27 14:32 | 37.91837 | -7.62859 | 31707 ft | 465 kts | 4° |
| 2026-04-27 14:33 | 37.95060 | -7.62594 | 32283 ft | 463 kts | 3° |
| 2026-04-27 14:33 | 37.98277 | -7.62330 | 32823 ft | 463 kts | 3° |
| 2026-04-27 14:33 | 38.01446 | -7.62069 | 33397 ft | 461 kts | 3° |
| 2026-04-27 14:33 | 38.04643 | -7.61805 | 33843 ft | 462 kts | 3° |
| 2026-04-27 14:34 | 38.07843 | -7.61510 | 33955 ft | 459 kts | 6° |
| 2026-04-27 14:34 | 38.14058 | -7.59717 | 33957 ft | 458 kts | 15° |
| 2026-04-27 14:35 | 38.20221 | -7.57593 | 33942 ft | 459 kts | 15° |
| 2026-04-27 14:35 | 38.26389 | -7.55479 | 33931 ft | 459 kts | 15° |
| 2026-04-27 14:36 | 38.32559 | -7.53363 | 33936 ft | 459 kts | 15° |
| 2026-04-27 14:36 | 38.38730 | -7.51240 | 33937 ft | 459 kts | 15° |
| 2026-04-27 14:37 | 38.44906 | -7.49122 | 33936 ft | 460 kts | 15° |
| 2026-04-27 14:37 | 38.51084 | -7.47007 | 33935 ft | 460 kts | 15° |
| 2026-04-27 14:38 | 38.57258 | -7.44872 | 33934 ft | 460 kts | 15° |
| 2026-04-27 14:38 | 38.63436 | -7.42726 | 33935 ft | 460 kts | 15° |
| 2026-04-27 14:39 | 38.69622 | -7.40586 | 33930 ft | 460 kts | 15° |
| 2026-04-27 14:39 | 38.75805 | -7.38440 | 33937 ft | 460 kts | 15° |
| 2026-04-27 14:40 | 38.81990 | -7.36311 | 33939 ft | 460 kts | 15° |
| 2026-04-27 14:40 | 38.88174 | -7.34164 | 33940 ft | 461 kts | 15° |
| 2026-04-27 14:41 | 38.94352 | -7.32013 | 33941 ft | 459 kts | 15° |
| 2026-04-27 14:41 | 39.00521 | -7.29859 | 33952 ft | 460 kts | 15° |
| 2026-04-27 14:42 | 39.06698 | -7.27699 | 33949 ft | 459 kts | 15° |
| 2026-04-27 14:42 | 39.12865 | -7.25539 | 33962 ft | 459 kts | 15° |
| 2026-04-27 14:43 | 39.19031 | -7.23373 | 33958 ft | 464 kts | 15° |